createdAt,value
2022-09-16T00:02:28.671Z,1.42
2022-09-16T00:04:57.704Z,1.42
2022-09-16T00:07:26.723Z,1.50
2022-09-16T00:09:55.799Z,1.60
2022-09-16T00:12:24.775Z,1.42
2022-09-16T00:14:53.953Z,1.70
2022-09-16T00:17:24.507Z,2.08
2022-09-16T00:19:53.765Z,1.50
2022-09-16T00:22:22.886Z,1.80
2022-09-16T00:24:52.118Z,1.70
2022-09-16T00:27:21.156Z,1.40
2022-09-16T00:29:53.797Z,1.40
2022-09-16T00:32:36.566Z,1.40
2022-09-16T00:35:11.353Z,1.55
2022-09-16T00:37:44.075Z,1.30
2022-09-16T00:40:13.153Z,1.58
2022-09-16T00:42:42.790Z,1.30
2022-09-16T00:45:20.509Z,1.33
2022-09-16T00:47:54.856Z,1.13
2022-09-16T00:50:43.166Z,1.20
2022-09-16T00:53:17.150Z,0.85
2022-09-16T00:55:48.134Z,1.23
2022-09-16T00:58:23.264Z,1.40
2022-09-16T01:01:01.990Z,1.33
2022-09-16T01:04:07.946Z,1.23
2022-09-16T01:07:04.029Z,1.38
2022-09-16T01:09:33.604Z,1.08
2022-09-16T01:12:03.118Z,1.10
2022-09-16T01:14:51.379Z,1.35
2022-09-16T01:17:29.338Z,1.00
2022-09-16T01:20:39.600Z,1.10
2022-09-16T01:23:50.100Z,1.23
2022-09-16T01:26:59.296Z,1.50
2022-09-16T01:29:50.697Z,1.08
2022-09-16T01:32:33.636Z,1.35
2022-09-16T01:35:20.090Z,1.08
2022-09-16T01:38:20.237Z,1.08
2022-09-16T01:41:05.524Z,1.75
2022-09-16T01:44:08.639Z,1.10
2022-09-16T01:50:34.445Z,1.20
2022-09-16T01:53:22.939Z,1.40
2022-09-16T01:56:06.490Z,1.10
2022-09-16T01:58:46.241Z,1.30
2022-09-16T02:01:27.212Z,1.15
2022-09-16T02:04:02.177Z,1.23
2022-09-16T02:06:39.352Z,1.20
2022-09-16T02:09:15.406Z,1.13
2022-09-16T02:11:46.896Z,1.05
2022-09-16T02:14:19.082Z,1.40
2022-09-16T02:16:52.401Z,1.30
2022-09-16T02:19:24.821Z,1.58
2022-09-16T02:21:57.424Z,1.80
2022-09-16T02:24:47.429Z,1.30
2022-09-16T02:33:49.046Z,1.58
2022-09-16T02:36:39.986Z,1.40
2022-09-16T02:39:20.192Z,1.40
2022-09-16T02:41:49.319Z,1.30
2022-09-16T02:44:18.439Z,1.35
2022-09-16T02:46:57.558Z,1.20
2022-09-16T02:49:31.138Z,1.73
2022-09-16T02:52:05.627Z,1.52
2022-09-16T02:54:40.534Z,1.40
2022-09-16T02:57:10.975Z,1.27
2022-09-16T02:59:40.600Z,1.40
2022-09-16T03:02:09.841Z,1.83
2022-09-16T03:04:38.965Z,1.42
2022-09-16T03:07:11.842Z,1.40
2022-09-16T03:09:44.770Z,1.25
2022-09-16T03:12:25.664Z,1.30
2022-09-16T03:15:24.555Z,1.38
2022-09-16T03:18:17.301Z,1.30
2022-09-16T03:20:56.177Z,1.30
2022-09-16T03:23:49.655Z,1.30
2022-09-16T03:26:30.636Z,2.08
2022-09-16T03:29:27.434Z,1.27
2022-09-16T03:32:08.809Z,1.50
2022-09-16T03:34:49.909Z,1.42
2022-09-16T03:37:46.406Z,1.35
2022-09-16T03:40:19.225Z,1.58
2022-09-16T03:43:01.287Z,1.30
2022-09-16T03:45:30.271Z,1.27
2022-09-16T03:47:59.241Z,1.30
2022-09-16T03:50:28.643Z,1.50
2022-09-16T03:52:57.636Z,1.30
2022-09-16T03:55:26.985Z,1.42
2022-09-16T03:58:01.246Z,1.33
2022-09-16T04:00:30.384Z,1.60
2022-09-16T04:03:03.311Z,1.60
2022-09-16T04:05:38.718Z,1.85
2022-09-16T04:08:08.941Z,1.40
2022-09-16T04:10:39.990Z,1.50
2022-09-16T04:13:10.868Z,1.63
2022-09-16T04:15:40.033Z,1.38
2022-09-16T04:18:09.011Z,1.27
2022-09-16T04:20:38.010Z,1.50
2022-09-16T04:23:07.030Z,1.30
2022-09-16T04:25:36.241Z,1.60
2022-09-16T04:28:05.294Z,1.75
2022-09-16T04:30:35.848Z,1.33
2022-09-16T04:33:05.090Z,1.50
2022-09-16T04:35:34.172Z,1.30
2022-09-16T04:38:06.697Z,1.20
2022-09-16T04:40:35.740Z,1.40
2022-09-16T04:43:04.780Z,1.23
2022-09-16T04:45:35.172Z,1.30
2022-09-16T04:48:04.436Z,1.17
2022-09-16T04:50:33.486Z,1.63
2022-09-16T04:53:02.556Z,1.33
2022-09-16T04:55:33.692Z,1.58
2022-09-16T04:58:11.644Z,1.42
2022-09-16T05:00:42.326Z,1.45
2022-09-16T05:03:36.321Z,1.00
2022-09-16T05:06:07.629Z,1.13
2022-09-16T05:08:37.759Z,1.27
2022-09-16T05:11:09.258Z,0.98
2022-09-16T05:13:39.253Z,1.30
2022-09-16T05:16:53.766Z,1.23
2022-09-16T05:19:24.807Z,1.35
2022-09-16T05:21:53.794Z,1.65
2022-09-16T05:24:22.764Z,1.23
2022-09-16T05:26:51.775Z,1.27
2022-09-16T05:29:20.948Z,1.20
2022-09-16T05:31:50.774Z,1.40
2022-09-16T05:34:21.726Z,1.00
2022-09-16T05:37:00.616Z,1.40
2022-09-16T05:39:29.802Z,1.17
2022-09-16T05:42:01.405Z,1.00
2022-09-16T05:46:59.225Z,1.00
2022-09-16T05:49:28.310Z,1.30
2022-09-16T05:52:36.297Z,1.10
2022-09-16T05:55:06.203Z,1.30
2022-09-16T05:57:35.415Z,1.15
2022-09-16T06:00:05.374Z,2.00
2022-09-16T06:02:39.124Z,1.00
2022-09-16T06:05:26.137Z,1.50
2022-09-16T06:08:10.868Z,1.30
2022-09-16T06:10:47.122Z,1.00
2022-09-16T06:13:21.390Z,1.20
2022-09-16T06:15:52.311Z,1.35
2022-09-16T06:18:21.396Z,1.23
2022-09-16T06:20:58.975Z,1.30
2022-09-16T06:23:29.411Z,1.30
2022-09-16T06:26:03.143Z,1.40
2022-09-16T06:28:35.268Z,1.23
2022-09-16T06:31:07.905Z,2.05
2022-09-16T06:33:39.492Z,1.75
2022-09-16T06:36:10.854Z,1.38
2022-09-16T06:41:17.712Z,1.63
2022-09-16T06:43:47.701Z,1.50
2022-09-16T06:46:23.283Z,1.05
2022-09-16T06:48:58.708Z,1.33
2022-09-16T06:51:31.359Z,0.95
2022-09-16T06:54:04.544Z,1.10
2022-09-16T06:56:34.186Z,1.45
2022-09-16T06:59:03.721Z,1.70
2022-09-16T07:01:33.880Z,1.30
2022-09-16T07:04:14.746Z,1.30
2022-09-16T07:09:34.364Z,1.30
2022-09-16T07:12:03.951Z,1.20
2022-09-16T07:14:33.542Z,1.05
2022-09-16T07:17:03.293Z,1.33
2022-09-16T07:19:32.389Z,1.05
2022-09-16T07:22:01.446Z,1.20
2022-09-16T07:24:31.204Z,1.10
2022-09-16T07:27:01.558Z,1.52
2022-09-16T07:29:45.459Z,1.52
2022-09-16T07:32:15.820Z,1.17
2022-09-16T07:35:04.543Z,1.15
2022-09-16T07:37:44.036Z,1.10
2022-09-16T07:40:14.050Z,1.48
2022-09-16T07:46:39.188Z,1.70
2022-09-16T07:52:50.771Z,1.10
2022-09-16T07:55:21.036Z,0.98
2022-09-16T07:57:59.202Z,1.42
2022-09-16T08:00:28.582Z,1.20
2022-09-16T08:02:59.187Z,1.30
2022-09-16T08:05:31.407Z,1.10
2022-09-16T08:09:37.651Z,1.30
2022-09-16T08:12:07.315Z,1.10
2022-09-16T08:14:40.387Z,1.23
2022-09-16T08:17:30.721Z,1.20
2022-09-16T08:20:04.317Z,1.23
2022-09-16T08:22:33.350Z,1.13
2022-09-16T08:25:02.362Z,1.40
2022-09-16T08:27:38.172Z,1.20
2022-09-16T08:30:10.125Z,0.80
2022-09-16T08:32:39.217Z,1.10
2022-09-16T08:35:09.226Z,1.38
2022-09-16T08:37:55.197Z,1.05
2022-09-16T08:40:30.811Z,1.23
2022-09-16T08:43:27.205Z,1.27
2022-09-16T08:46:33.832Z,1.50
2022-09-16T08:52:26.605Z,1.08
2022-09-16T08:55:10.964Z,0.90
2022-09-16T08:58:27.271Z,0.85
2022-09-16T09:01:12.509Z,1.17
2022-09-16T09:03:44.908Z,1.10
2022-09-16T09:06:24.158Z,1.17
2022-09-16T09:09:27.387Z,1.05
2022-09-16T09:12:08.514Z,1.17
2022-09-16T09:18:24.238Z,1.10
2022-09-16T09:21:06.919Z,0.77
2022-09-16T09:24:01.684Z,0.88
2022-09-16T09:26:52.707Z,0.90
2022-09-16T09:30:25.940Z,1.50
2022-09-16T09:34:01.625Z,1.00
2022-09-16T09:37:00.505Z,0.70
2022-09-16T09:40:17.176Z,0.88
2022-09-16T09:42:52.653Z,1.17
2022-09-16T09:45:27.255Z,0.80
2022-09-16T09:48:02.604Z,0.80
2022-09-16T09:50:37.539Z,1.10
2022-09-16T09:53:18.695Z,0.90
2022-09-16T09:55:47.725Z,1.33
2022-09-16T09:58:26.070Z,0.90
2022-09-16T10:01:35.940Z,0.82
2022-09-16T10:04:25.804Z,1.10
2022-09-16T10:07:08.904Z,0.90
2022-09-16T10:09:50.886Z,0.70
2022-09-16T10:14:58.326Z,0.70
2022-09-16T10:17:58.830Z,0.70
2022-09-16T10:20:48.233Z,0.75
2022-09-16T10:23:53.418Z,0.63
2022-09-16T10:26:40.123Z,0.52
2022-09-16T10:29:26.112Z,0.60
2022-09-16T10:31:55.795Z,0.95
2022-09-16T10:34:41.591Z,0.60
2022-09-16T10:37:39.462Z,0.80
2022-09-16T10:40:18.487Z,0.80
2022-09-16T10:42:50.740Z,1.27
2022-09-16T10:45:27.545Z,0.65
2022-09-16T10:48:16.919Z,0.60
2022-09-16T10:50:54.627Z,0.68
2022-09-16T10:54:02.355Z,0.70
2022-09-16T10:56:34.683Z,0.60
2022-09-16T10:59:12.895Z,0.63
2022-09-16T11:01:49.593Z,0.65
2022-09-16T11:04:42.478Z,0.50
2022-09-16T11:07:28.736Z,0.75
2022-09-16T11:10:06.360Z,0.70
2022-09-16T11:12:50.251Z,0.63
2022-09-16T11:15:32.905Z,0.50
2022-09-16T11:18:16.295Z,0.80
2022-09-16T11:21:13.445Z,0.60
2022-09-16T11:23:58.529Z,0.60
2022-09-16T11:26:35.489Z,0.70
2022-09-16T11:29:27.257Z,0.70
2022-09-16T11:32:09.091Z,0.50
2022-09-16T11:37:24.342Z,0.60
2022-09-16T11:40:11.059Z,0.77
2022-09-16T11:42:47.790Z,0.85
2022-09-16T11:45:36.521Z,1.45
2022-09-16T11:48:31.183Z,0.80
2022-09-16T11:51:08.223Z,0.68
2022-09-16T11:53:52.295Z,0.70
2022-09-16T11:56:29.354Z,1.00
2022-09-16T11:59:02.447Z,0.70
2022-09-16T12:01:36.498Z,0.60
2022-09-16T12:04:13.712Z,0.75
2022-09-16T12:06:52.149Z,0.80
2022-09-16T12:09:28.658Z,1.25
2022-09-16T12:12:07.329Z,1.02
2022-09-16T12:14:41.353Z,0.50
2022-09-16T12:17:15.100Z,0.82
2022-09-16T12:19:51.516Z,0.75
2022-09-16T12:22:24.482Z,0.70
2022-09-16T12:25:00.165Z,0.60
2022-09-16T12:27:39.408Z,0.80
2022-09-16T12:30:15.992Z,1.33
2022-09-16T12:32:53.459Z,0.90
2022-09-16T12:35:29.527Z,0.93
2022-09-16T12:37:58.784Z,0.73
2022-09-16T12:40:30.049Z,1.00
2022-09-16T12:46:16.290Z,0.70
2022-09-16T12:49:34.506Z,0.73
2022-09-16T12:52:34.053Z,0.88
2022-09-16T12:55:34.147Z,0.75
2022-09-16T12:58:20.549Z,0.77
2022-09-16T13:01:00.035Z,0.80
2022-09-16T13:03:32.566Z,1.13
2022-09-16T13:06:16.314Z,0.93
2022-09-16T13:08:47.094Z,0.90
2022-09-16T13:14:23.983Z,0.73
2022-09-16T13:16:57.953Z,0.73
2022-09-16T13:19:41.233Z,0.70
2022-09-16T13:22:23.459Z,1.15
2022-09-16T13:24:57.397Z,0.88
2022-09-16T13:27:30.141Z,0.70
2022-09-16T13:30:27.982Z,0.90
2022-09-16T13:33:03.247Z,1.40
2022-09-16T13:35:41.155Z,1.10
2022-09-16T13:38:24.370Z,0.70
2022-09-16T13:41:00.635Z,1.02
2022-09-16T13:43:36.514Z,0.88
2022-09-16T13:46:11.286Z,0.90
2022-09-16T13:48:46.569Z,0.90
2022-09-16T13:51:20.468Z,1.17
2022-09-16T13:53:53.194Z,0.90
2022-09-16T13:56:49.304Z,0.98
2022-09-16T13:59:35.350Z,1.02
2022-09-16T14:02:17.004Z,0.93
2022-09-16T14:05:11.537Z,0.90
2022-09-16T14:07:48.042Z,0.93
2022-09-16T14:10:26.173Z,1.02
2022-09-16T14:13:15.959Z,0.90
2022-09-16T14:15:48.082Z,1.05
2022-09-16T14:18:21.023Z,1.38
2022-09-16T14:21:01.579Z,0.88
2022-09-16T14:23:33.150Z,0.98
2022-09-16T14:29:08.174Z,0.90
2022-09-16T14:31:57.651Z,0.90
2022-09-16T14:34:56.556Z,1.13
2022-09-16T14:37:28.449Z,0.93
2022-09-16T14:40:04.211Z,1.00
2022-09-16T14:42:33.996Z,0.95
2022-09-16T14:45:05.731Z,0.60
2022-09-16T14:47:51.161Z,0.50
2022-09-16T14:50:23.562Z,0.80
2022-09-16T14:55:30.288Z,0.70
2022-09-16T14:58:00.151Z,0.60
2022-09-16T15:00:41.027Z,1.15
2022-09-16T15:03:18.759Z,0.68
2022-09-16T15:05:49.759Z,0.60
2022-09-16T15:08:21.277Z,0.90
2022-09-16T15:10:54.000Z,0.82
2022-09-16T15:13:26.841Z,0.70
2022-09-16T15:16:00.694Z,0.80
2022-09-16T15:18:32.842Z,0.90
2022-09-16T15:21:07.250Z,0.70
2022-09-16T15:23:38.543Z,0.60
2022-09-16T15:26:14.701Z,0.82
2022-09-16T15:28:55.465Z,0.80
2022-09-16T15:31:32.151Z,0.70
2022-09-16T15:34:02.840Z,1.05
2022-09-16T15:36:38.485Z,1.10
2022-09-16T15:39:24.548Z,1.17
2022-09-16T15:42:09.831Z,0.90
2022-09-16T15:44:45.113Z,1.10
2022-09-16T15:47:21.809Z,1.40
2022-09-16T15:49:54.217Z,0.95
2022-09-16T15:52:23.561Z,0.98
2022-09-16T15:54:56.278Z,0.90
2022-09-16T15:57:33.139Z,0.77
2022-09-16T16:00:11.603Z,0.90
2022-09-16T16:02:50.565Z,1.00
2022-09-16T16:05:23.165Z,0.80
2022-09-16T16:07:54.493Z,0.90
2022-09-16T16:12:57.380Z,0.80
2022-09-16T16:15:29.639Z,0.90
2022-09-16T16:18:02.545Z,0.60
2022-09-16T16:20:34.140Z,0.90
2022-09-16T16:23:03.644Z,0.98
2022-09-16T16:25:32.737Z,0.90
2022-09-16T16:28:01.835Z,0.95
2022-09-16T16:30:31.483Z,0.98
2022-09-16T16:33:01.888Z,0.80
2022-09-16T16:35:31.076Z,0.70
2022-09-16T16:38:00.141Z,0.82
2022-09-16T16:40:29.155Z,1.00
2022-09-16T16:42:58.198Z,0.88
2022-09-16T16:45:27.261Z,0.85
2022-09-16T16:47:56.896Z,0.98
2022-09-16T16:50:28.322Z,1.00
2022-09-16T16:53:00.679Z,0.65
2022-09-16T16:55:29.761Z,0.80
2022-09-16T16:57:59.024Z,0.70
2022-09-16T17:00:28.182Z,0.90
2022-09-16T17:02:57.156Z,0.88
2022-09-16T17:05:27.651Z,1.35
2022-09-16T17:07:56.673Z,1.20
2022-09-16T17:10:25.762Z,1.15
2022-09-16T17:12:54.981Z,0.70
2022-09-16T17:15:23.942Z,0.60
2022-09-16T17:17:52.986Z,0.90
2022-09-16T17:20:22.698Z,1.10
2022-09-16T17:22:53.648Z,1.10
2022-09-16T17:25:22.746Z,0.90
2022-09-16T17:27:51.778Z,0.95
2022-09-16T17:30:21.053Z,2.72
2022-09-16T17:32:50.348Z,3.70
2022-09-16T17:35:19.622Z,4.43
2022-09-16T17:37:48.726Z,2.85
2022-09-16T17:40:20.607Z,3.88
2022-09-16T17:42:52.635Z,1.30
2022-09-16T17:45:21.793Z,2.53
2022-09-16T17:47:50.862Z,2.08
2022-09-16T17:50:23.035Z,2.00
2022-09-16T17:52:52.529Z,1.98
2022-09-16T17:55:25.601Z,1.45
2022-09-16T17:57:54.642Z,1.05
2022-09-16T18:00:23.707Z,1.20
2022-09-16T18:02:52.883Z,1.40
2022-09-16T18:05:23.792Z,2.20
2022-09-16T18:07:54.573Z,0.85
2022-09-16T18:10:25.007Z,0.80
2022-09-16T18:12:54.385Z,1.23
2022-09-16T18:15:23.550Z,1.33
2022-09-16T18:17:52.601Z,1.80
2022-09-16T18:20:22.932Z,1.98
2022-09-16T18:22:51.950Z,1.55
2022-09-16T18:25:20.952Z,1.40
2022-09-16T18:27:53.501Z,1.35
2022-09-16T18:30:23.734Z,1.40
2022-09-16T18:32:52.711Z,1.13
2022-09-16T18:35:21.862Z,1.60
2022-09-16T18:37:50.841Z,2.47
2022-09-16T18:40:20.184Z,2.45
2022-09-16T18:42:53.196Z,2.25
2022-09-16T18:45:28.915Z,3.05
2022-09-16T18:47:58.750Z,3.80
2022-09-16T18:50:27.783Z,2.83
2022-09-16T18:52:56.833Z,2.00
2022-09-16T18:55:26.694Z,2.00
2022-09-16T18:57:57.356Z,2.40
2022-09-16T19:00:29.844Z,2.47
2022-09-16T19:02:58.874Z,2.30
2022-09-16T19:05:28.869Z,2.70
2022-09-16T19:07:59.650Z,2.92
2022-09-16T19:10:40.828Z,3.63
2022-09-16T19:13:15.192Z,3.15
2022-09-16T19:15:44.216Z,2.15
2022-09-16T19:18:40.752Z,2.67
2022-09-16T19:21:19.662Z,2.08
2022-09-16T19:24:01.054Z,1.80
2022-09-16T19:26:34.104Z,1.98
2022-09-16T19:29:10.281Z,2.10
2022-09-16T19:31:41.092Z,3.30
2022-09-16T19:37:26.984Z,2.95
2022-09-16T19:40:25.002Z,3.05
2022-09-16T19:43:03.021Z,2.47
2022-09-16T19:45:53.647Z,3.33
2022-09-16T19:48:40.117Z,2.95
2022-09-16T19:51:12.597Z,3.03
2022-09-16T19:53:52.062Z,2.92
2022-09-16T19:56:26.651Z,4.32
2022-09-16T19:59:10.450Z,5.00
2022-09-16T20:01:41.579Z,3.03
2022-09-16T20:04:10.835Z,3.08
2022-09-16T20:06:41.487Z,2.58
2022-09-16T20:09:12.781Z,4.43
2022-09-16T20:11:43.810Z,4.60
2022-09-16T20:14:16.076Z,4.47
2022-09-16T20:16:46.684Z,3.05
2022-09-16T20:19:17.453Z,3.60
2022-09-16T20:21:46.545Z,3.13
2022-09-16T20:24:18.598Z,2.40
2022-09-16T20:26:49.453Z,2.45
2022-09-16T20:29:19.271Z,2.67
2022-09-16T20:31:52.734Z,2.47
2022-09-16T20:34:24.432Z,2.63
2022-09-16T20:36:53.702Z,2.50
2022-09-16T20:39:23.421Z,2.63
2022-09-16T20:42:02.608Z,4.03
2022-09-16T20:44:31.888Z,4.70
2022-09-16T20:47:02.299Z,3.22
2022-09-16T20:49:31.423Z,4.00
2022-09-16T20:52:00.409Z,3.70
2022-09-16T20:54:29.349Z,2.47
2022-09-16T20:56:58.359Z,2.13
2022-09-16T20:59:27.532Z,1.88
2022-09-16T21:02:04.130Z,2.10
2022-09-16T21:04:37.226Z,3.05
2022-09-16T21:07:08.685Z,4.82
2022-09-16T21:09:37.722Z,7.13
2022-09-16T21:12:07.445Z,5.50
2022-09-16T21:14:36.432Z,3.47
2022-09-16T21:17:05.617Z,2.72
2022-09-16T21:19:36.133Z,1.75
2022-09-16T21:22:05.455Z,1.97
2022-09-16T21:24:34.475Z,1.67
2022-09-16T21:27:03.497Z,1.30
2022-09-16T21:29:34.040Z,1.40
2022-09-16T21:32:03.478Z,1.50
2022-09-16T21:34:32.577Z,1.92
2022-09-16T21:37:05.208Z,2.00
2022-09-16T21:39:34.246Z,1.92
2022-09-16T21:42:03.540Z,1.90
2022-09-16T21:44:32.822Z,2.13
2022-09-16T21:47:01.800Z,1.70
2022-09-16T21:49:30.769Z,2.78
2022-09-16T21:52:00.534Z,2.22
2022-09-16T21:54:44.091Z,2.67
2022-09-16T21:57:14.550Z,2.50
2022-09-16T22:00:09.279Z,2.00
2022-09-16T22:02:38.521Z,2.30
2022-09-16T22:05:08.324Z,1.42
2022-09-16T22:07:37.311Z,1.60
2022-09-16T22:10:09.195Z,1.55
2022-09-16T22:12:38.253Z,1.60
2022-09-16T22:15:09.095Z,1.95
2022-09-16T22:18:01.309Z,1.63
2022-09-16T22:20:53.175Z,1.52
2022-09-16T22:23:30.341Z,2.00
2022-09-16T22:26:05.150Z,2.38
2022-09-16T22:28:36.810Z,2.72
2022-09-16T22:31:27.751Z,3.15
2022-09-16T22:34:00.302Z,2.50
2022-09-16T22:36:35.128Z,2.47
2022-09-16T22:39:16.099Z,2.20
2022-09-16T22:41:57.546Z,2.20
2022-09-16T22:47:12.036Z,2.05
2022-09-16T22:49:52.796Z,2.22
2022-09-16T22:52:27.139Z,2.15
2022-09-16T22:54:56.250Z,2.00
2022-09-16T22:57:58.917Z,2.78
2022-09-16T23:00:30.318Z,2.35
2022-09-16T23:02:59.406Z,2.28
2022-09-16T23:05:28.578Z,2.30
2022-09-16T23:07:57.553Z,2.42
2022-09-16T23:10:26.571Z,1.92
2022-09-16T23:12:59.672Z,2.10
2022-09-16T23:15:29.642Z,1.98
2022-09-16T23:17:58.623Z,1.70
2022-09-16T23:20:27.639Z,1.80
2022-09-16T23:22:56.580Z,1.80
2022-09-16T23:25:26.497Z,2.05
2022-09-16T23:27:56.899Z,1.75
2022-09-16T23:30:25.942Z,1.50
2022-09-16T23:32:55.320Z,1.90
2022-09-16T23:35:56.965Z,1.52
2022-09-16T23:41:33.564Z,1.63
2022-09-16T23:48:03.260Z,1.60
2022-09-16T23:53:53.199Z,1.88
2022-09-16T23:56:22.413Z,1.65
2022-09-16T23:58:52.219Z,1.50
